createdAt,value
2023-01-23T00:04:44.346Z,-0.62
2023-01-23T00:10:10.320Z,-0.62
2023-01-23T00:15:36.309Z,-0.63
2023-01-23T00:21:05.291Z,-0.62
2023-01-23T00:26:32.385Z,-0.62
2023-01-23T00:31:57.352Z,-0.59
2023-01-23T00:37:39.336Z,-0.60
2023-01-23T00:43:04.657Z,-0.63
2023-01-23T00:48:28.313Z,-0.64
2023-01-23T00:53:56.329Z,-0.63
2023-01-23T00:59:22.321Z,-0.64
2023-01-23T01:04:47.356Z,-0.64
2023-01-23T01:10:15.521Z,-0.66
2023-01-23T01:15:40.343Z,-0.65
2023-01-23T01:21:05.335Z,-0.64
2023-01-23T01:26:33.414Z,-0.64
2023-01-23T01:31:57.413Z,-0.64
2023-01-23T01:37:22.343Z,-0.65
2023-01-23T01:42:54.375Z,-0.64
2023-01-23T01:48:19.367Z,-0.64
2023-01-23T01:53:46.311Z,-0.64
2023-01-23T01:59:16.490Z,-0.65
2023-01-23T02:04:41.337Z,-0.64
2023-01-23T02:10:07.377Z,-0.64
2023-01-23T02:15:38.338Z,-0.64
2023-01-23T02:21:06.384Z,-0.63
2023-01-23T02:26:39.408Z,-0.64
2023-01-23T02:32:04.428Z,-0.64
2023-01-23T02:37:29.374Z,-0.66
2023-01-23T02:43:04.381Z,-0.66
2023-01-23T02:48:40.533Z,-0.65
2023-01-23T02:54:06.410Z,-0.65
2023-01-23T02:59:46.398Z,-0.66
2023-01-23T03:05:12.374Z,-0.64
2023-01-23T03:10:37.357Z,-0.66
2023-01-23T03:16:05.557Z,-0.64
2023-01-23T03:21:30.494Z,-0.66
2023-01-23T03:26:57.392Z,-0.66
2023-01-23T03:32:32.478Z,-0.64
2023-01-23T03:37:59.363Z,-0.65
2023-01-23T03:43:24.399Z,-0.65
2023-01-23T03:48:58.479Z,-0.63
2023-01-23T03:54:23.367Z,-0.64
2023-01-23T03:59:48.386Z,-0.64
2023-01-23T04:05:20.375Z,-0.64
2023-01-23T04:10:48.583Z,-0.63
2023-01-23T04:16:15.468Z,-0.63
2023-01-23T04:21:42.628Z,-0.62
2023-01-23T04:27:07.375Z,-0.64
2023-01-23T04:32:31.403Z,-0.61
2023-01-23T04:37:59.684Z,-0.62
2023-01-23T04:43:26.431Z,-0.63
2023-01-23T04:48:51.385Z,-0.63
2023-01-23T04:54:20.386Z,-0.63
2023-01-23T04:59:45.442Z,-0.66
2023-01-23T05:05:11.403Z,-0.67
2023-01-23T05:10:39.662Z,-0.66
2023-01-23T05:16:07.437Z,-0.66
2023-01-23T05:21:55.414Z,-0.66
2023-01-23T05:27:22.439Z,-0.66
2023-01-23T05:32:47.403Z,-0.66
2023-01-23T05:38:13.450Z,-0.68
2023-01-23T05:43:41.422Z,-0.69
2023-01-23T05:49:21.419Z,-0.69
2023-01-23T05:54:47.414Z,-0.67
2023-01-23T06:00:15.430Z,-0.66
2023-01-23T06:06:00.414Z,-0.66
2023-01-23T06:11:24.417Z,-0.68
2023-01-23T06:16:52.416Z,-0.67
2023-01-23T06:22:17.439Z,-0.68
2023-01-23T06:27:54.871Z,-0.66
2023-01-23T06:33:31.433Z,-0.65
2023-01-23T06:38:59.449Z,-0.65
2023-01-23T06:44:31.452Z,-0.65
2023-01-23T06:49:59.446Z,-0.65
2023-01-23T06:55:29.465Z,-0.63
2023-01-23T07:00:55.455Z,-0.63
2023-01-23T07:06:51.446Z,-0.63
2023-01-23T07:12:16.430Z,-0.62
2023-01-23T07:17:41.447Z,-0.61
2023-01-23T07:23:09.456Z,-0.60
2023-01-23T07:28:33.447Z,-0.59
2023-01-23T07:33:58.730Z,-0.57
2023-01-23T07:39:25.469Z,-0.56
2023-01-23T07:44:50.438Z,-0.53
2023-01-23T07:50:14.470Z,-0.51
2023-01-23T07:55:42.469Z,-0.48
2023-01-23T08:01:07.542Z,-0.47
2023-01-23T08:06:32.499Z,-0.44
2023-01-23T08:11:59.476Z,-0.40
2023-01-23T08:17:24.468Z,-0.38
2023-01-23T08:22:48.491Z,-0.37
2023-01-23T08:28:16.499Z,-0.34
2023-01-23T08:33:40.495Z,-0.32
2023-01-23T08:39:05.519Z,-0.29
2023-01-23T08:44:32.583Z,-0.26
2023-01-23T08:50:03.486Z,-0.25
2023-01-23T08:55:29.541Z,-0.22
2023-01-23T09:00:56.569Z,-0.20
2023-01-23T09:06:23.568Z,-0.17
2023-01-23T09:11:48.847Z,-0.15
2023-01-23T09:17:16.515Z,-0.13
2023-01-23T09:22:41.491Z,-0.14
2023-01-23T09:28:07.502Z,-0.12
2023-01-23T09:33:34.546Z,-0.10
2023-01-23T09:39:00.951Z,-0.08
2023-01-23T09:44:34.901Z,-0.06
2023-01-23T09:50:07.528Z,-0.06
2023-01-23T09:55:38.524Z,-0.01
2023-01-23T10:01:03.574Z,0.01
2023-01-23T10:06:36.539Z,0.03
2023-01-23T10:12:11.544Z,0.07
2023-01-23T10:17:45.550Z,0.09
2023-01-23T10:23:21.612Z,0.11
2023-01-23T10:28:49.538Z,0.18
2023-01-23T10:34:25.675Z,0.21
2023-01-23T10:40:03.506Z,0.21
2023-01-23T10:45:31.550Z,0.21
2023-01-23T10:50:55.600Z,0.20
2023-01-23T10:56:27.582Z,0.23
2023-01-23T11:01:57.734Z,0.24
2023-01-23T11:07:24.548Z,0.22
2023-01-23T11:13:04.520Z,0.23
2023-01-23T11:18:40.517Z,0.26
2023-01-23T11:24:05.604Z,0.30
2023-01-23T11:29:37.761Z,0.36
2023-01-23T11:35:08.444Z,0.44
2023-01-23T11:40:33.589Z,0.43
2023-01-23T11:46:13.577Z,0.50
2023-01-23T11:51:46.539Z,0.50
2023-01-23T11:57:19.886Z,0.47
2023-01-23T12:03:15.560Z,0.43
2023-01-23T12:08:50.567Z,0.42
2023-01-23T12:14:25.682Z,0.43
2023-01-23T12:20:08.578Z,0.32
2023-01-23T12:25:41.558Z,0.35
2023-01-23T12:31:24.698Z,0.35
2023-01-23T12:37:29.059Z,0.38
2023-01-23T12:43:00.546Z,0.32
2023-01-23T12:48:34.601Z,0.31
2023-01-23T12:54:12.569Z,0.25
2023-01-23T12:59:51.017Z,0.23
2023-01-23T13:05:31.575Z,0.21
2023-01-23T13:11:28.939Z,0.19
2023-01-23T13:17:03.625Z,0.21
2023-01-23T13:22:43.581Z,0.21
2023-01-23T13:28:49.792Z,0.17
2023-01-23T13:34:48.740Z,0.17
2023-01-23T13:40:20.018Z,0.17
2023-01-23T13:46:00.339Z,0.16
2023-01-23T14:20:31.609Z,0.08
2023-01-23T14:25:58.633Z,0.09
2023-01-23T14:31:31.903Z,0.11
2023-01-23T14:37:02.668Z,0.08
2023-01-23T14:42:34.792Z,0.06
2023-01-23T14:48:08.757Z,0.05
2023-01-23T14:53:42.650Z,0.01
2023-01-23T14:59:09.633Z,0.03
2023-01-23T15:04:39.706Z,0.03
2023-01-23T15:10:08.637Z,0.02
2023-01-23T15:15:35.670Z,-0.01
2023-01-23T15:21:04.648Z,-0.03
2023-01-23T15:26:48.719Z,-0.03
2023-01-23T15:32:26.619Z,-0.03
2023-01-23T15:37:50.674Z,-0.06
2023-01-23T15:43:22.642Z,-0.04
2023-01-23T15:48:47.693Z,-0.03
2023-01-23T15:54:26.411Z,-0.06
2023-01-23T16:00:07.641Z,-0.09
2023-01-23T16:05:35.643Z,-0.09
2023-01-23T16:10:59.633Z,-0.11
2023-01-23T16:16:28.741Z,-0.09
2023-01-23T16:22:04.297Z,-0.09
2023-01-23T16:27:33.641Z,-0.09
2023-01-23T16:33:00.644Z,-0.08
2023-01-23T16:38:31.649Z,-0.08
2023-01-23T16:43:56.640Z,-0.10
2023-01-23T16:49:24.654Z,-0.09
2023-01-23T16:54:49.657Z,-0.10
2023-01-23T17:00:19.075Z,-0.09
2023-01-23T17:05:49.662Z,-0.10
2023-01-23T17:11:15.645Z,-0.08
2023-01-23T17:16:39.694Z,-0.07
2023-01-23T17:22:08.676Z,-0.09
2023-01-23T17:27:26.667Z,-0.08
2023-01-23T17:32:52.678Z,-0.07
2023-01-23T17:38:27.690Z,-0.07
2023-01-23T17:43:54.659Z,-0.08
2023-01-23T17:49:36.796Z,-0.06
2023-01-23T17:55:03.678Z,-0.08
2023-01-23T18:00:36.704Z,-0.07
2023-01-23T18:06:01.717Z,-0.07
2023-01-23T18:11:36.699Z,-0.09
2023-01-23T18:17:02.791Z,-0.10
2023-01-23T18:22:28.737Z,-0.09
2023-01-23T18:27:57.675Z,-0.08
2023-01-23T18:33:55.200Z,-0.09
2023-01-23T18:39:41.739Z,-0.09
2023-01-23T18:45:16.546Z,-0.10
2023-01-23T18:50:44.720Z,-0.11
2023-01-23T18:56:22.692Z,-0.09
2023-01-23T19:01:59.853Z,-0.10
2023-01-23T19:07:30.746Z,-0.10
2023-01-23T19:13:07.868Z,-0.10
2023-01-23T19:18:51.721Z,-0.10
2023-01-23T19:24:18.855Z,-0.11
2023-01-23T19:29:43.722Z,-0.11
2023-01-23T19:35:26.877Z,-0.11
2023-01-23T19:40:51.716Z,-0.13
2023-01-23T19:46:18.775Z,-0.13
2023-01-23T19:51:47.724Z,-0.12
2023-01-23T19:57:13.744Z,-0.14
2023-01-23T20:02:37.788Z,-0.15
2023-01-23T20:08:05.822Z,-0.14
2023-01-23T20:13:30.721Z,-0.14
2023-01-23T20:18:55.717Z,-0.17
2023-01-23T20:24:24.782Z,-0.16
2023-01-23T20:29:49.730Z,-0.15
2023-01-23T20:35:14.741Z,-0.15
2023-01-23T20:40:42.724Z,-0.13
2023-01-23T20:46:08.837Z,-0.11
2023-01-23T20:51:33.855Z,-0.11
2023-01-23T20:57:02.736Z,-0.11
2023-01-23T21:02:35.786Z,-0.10
2023-01-23T21:07:59.758Z,-0.10
2023-01-23T21:13:27.781Z,-0.09
2023-01-23T21:18:53.752Z,-0.09
2023-01-23T21:24:19.914Z,-0.09
2023-01-23T21:29:47.735Z,-0.06
2023-01-23T21:35:12.771Z,-0.05
2023-01-23T21:40:36.826Z,-0.02
2023-01-23T21:46:05.936Z,0.02
2023-01-23T21:51:32.767Z,-0.01
2023-01-23T21:56:57.746Z,-0.01
2023-01-23T22:02:24.857Z,-0.04
2023-01-23T22:07:49.773Z,-0.05
2023-01-23T22:13:14.798Z,-0.07
2023-01-23T22:18:42.800Z,-0.05
2023-01-23T22:24:07.818Z,-0.07
2023-01-23T22:29:32.755Z,-0.08
2023-01-23T22:34:59.786Z,-0.05
2023-01-23T22:40:24.789Z,-0.07
2023-01-23T22:45:48.789Z,-0.05
2023-01-23T22:51:24.198Z,-0.06
2023-01-23T22:56:47.770Z,-0.08
2023-01-23T23:02:12.806Z,-0.07
2023-01-23T23:07:39.881Z,-0.07
2023-01-23T23:13:04.799Z,-0.08
2023-01-23T23:18:28.834Z,-0.07
2023-01-23T23:23:56.898Z,-0.09
2023-01-23T23:29:22.783Z,-0.06
2023-01-23T23:34:47.778Z,-0.06
2023-01-23T23:40:14.972Z,-0.05
2023-01-23T23:45:39.841Z,-0.03
2023-01-23T23:51:04.834Z,-0.06
2023-01-23T23:56:33.831Z,-0.08
